Time;durP1;ratioP1;P1;durP2;ratioP2;P2;SDS_P1;SDS_P2;PMS_P1;PMS_P2;Temp;Humidity;BMP_temperature;BMP_pressure;BME280_temperature;BME280_humidity;BME280_pressure;Samples;Min_cycle;Max_cycle;Signal;HPM_P1;HPM_P2
2023/04/29 00:00:32;;;;;;;;;;;;;;;9.58;77.08203;101605.9;;;;-68
2023/04/29 00:05:32;;;;;;;;;;;;;;;9.57;76.94434;101612.3;;;;-70
2023/04/29 00:10:32;;;;;;;;;;;;;;;9.55;76.87695;101615.4;;;;-70
2023/04/29 00:15:32;;;;;;;;;;;;;;;9.54;77.07422;101621.6;;;;-69
2023/04/29 00:20:32;;;;;;;;;;;;;;;9.54;76.7627;101626.5;;;;-68
2023/04/29 00:22:49;;;;;;;18.1;9.4;;;;;;;;;;;;;-69
2023/04/29 00:25:32;;;;;;;;;;;;;;;9.52;76.76172;101630;;;;-68
2023/04/29 00:30:32;;;;;;;;;;;;;;;9.5;76.73633;101636.9;;;;-68
2023/04/29 00:35:32;;;;;;;;;;;;;;;9.5;76.75781;101646.5;;;;-70
2023/04/29 00:40:32;;;;;;;;;;;;;;;9.48;77.00879;101651.9;;;;-69
2023/04/29 00:45:32;;;;;;;;;;;;;;;9.47;76.68359;101656.9;;;;-67
2023/04/29 00:50:32;;;;;;;;;;;;;;;9.46;76.66211;101661.5;;;;-69
2023/04/29 00:52:51;;;;;;;16.9;8.4;;;;;;;;;;;;;-68
2023/04/29 00:55:32;;;;;;;;;;;;;;;9.44;76.85742;101665.1;;;;-69
2023/04/29 01:00:32;;;;;;;;;;;;;;;9.45;76.86816;101672.2;;;;-69
2023/04/29 01:05:32;;;;;;;;;;;;;;;9.44;76.44824;101676.2;;;;-68
2023/04/29 01:10:38;;;;;;;;;;;;;;;9.44;76.65723;101676;;;;-69
2023/04/29 01:15:33;;;;;;;;;;;;;;;9.42;76.76367;101684;;;;-68
2023/04/29 01:20:33;;;;;;;;;;;;;;;9.4;76.72949;101687.7;;;;-68
2023/04/29 01:22:51;;;;;;;16.8;8.3;;;;;;;;;;;;;-68
2023/04/29 01:25:33;;;;;;;;;;;;;;;9.41;76.83984;101691.6;;;;-69
2023/04/29 01:30:35;;;;;;;;;;;;;;;9.4;76.9707;101697.5;;;;-68
2023/04/29 01:35:43;;;;;;;;;;;;;;;9.39;76.9248;101699.2;;;;-70
2023/04/29 01:40:37;;;;;;;;;;;;;;;9.38;77.22168;101698.6;;;;-69
2023/04/29 01:45:33;;;;;;;;;;;;;;;9.4;77.78809;101701.7;;;;-68
2023/04/29 01:50:32;;;;;;;;;;;;;;;9.39;76.98047;101707;;;;-69
2023/04/29 01:52:53;;;;;;;16.2;8.3;;;;;;;;;;;;;-69
2023/04/29 01:55:32;;;;;;;;;;;;;;;9.36;76.82031;101709.4;;;;-69
2023/04/29 02:00:32;;;;;;;;;;;;;;;9.34;76.77344;101713;;;;-69
2023/04/29 02:05:33;;;;;;;;;;;;;;;9.33;76.8916;101718.4;;;;-69
2023/04/29 02:10:32;;;;;;;;;;;;;;;9.33;76.87109;101723.1;;;;-70
2023/04/29 02:15:33;;;;;;;;;;;;;;;9.32;76.8125;101731.2;;;;-68
2023/04/29 02:20:32;;;;;;;;;;;;;;;9.31;76.96777;101727.6;;;;-68
2023/04/29 02:23:03;;;;;;;16.7;8;;;;;;;;;;;;;-68
2023/04/29 02:25:32;;;;;;;;;;;;;;;9.31;77.64063;101732;;;;-68
2023/04/29 02:30:32;;;;;;;;;;;;;;;9.3;77.07422;101746.4;;;;-69
2023/04/29 02:35:33;;;;;;;;;;;;;;;9.3;76.96582;101756.8;;;;-68
2023/04/29 02:40:34;;;;;;;;;;;;;;;9.29;76.80762;101756.6;;;;-69
2023/04/29 02:45:32;;;;;;;;;;;;;;;9.29;76.89648;101761.1;;;;-69
2023/04/29 02:50:32;;;;;;;;;;;;;;;9.27;77.1123;101765.7;;;;-68
2023/04/29 02:52:56;;;;;;;18.5;8.4;;;;;;;;;;;;;-68
2023/04/29 02:55:32;;;;;;;;;;;;;;;9.27;76.96875;101773.6;;;;-69
2023/04/29 03:00:32;;;;;;;;;;;;;;;9.27;77.32324;101775.5;;;;-69
2023/04/29 03:05:32;;;;;;;;;;;;;;;9.25;76.83496;101780.2;;;;-67
2023/04/29 03:10:32;;;;;;;;;;;;;;;9.24;77.10938;101784.2;;;;-68
2023/04/29 03:15:32;;;;;;;;;;;;;;;9.24;77.35156;101786.7;;;;-69
2023/04/29 03:20:32;;;;;;;;;;;;;;;9.23;77.39453;101791.5;;;;-68
2023/04/29 03:22:57;;;;;;;15.4;7.8;;;;;;;;;;;;;-69
2023/04/29 03:25:32;;;;;;;;;;;;;;;9.2;77.02344;101795.9;;;;-70
2023/04/29 03:30:34;;;;;;;;;;;;;;;9.19;77.1875;101795.3;;;;-69
2023/04/29 03:35:34;;;;;;;;;;;;;;;9.2;76.6709;101804.8;;;;-69
2023/04/29 03:40:32;;;;;;;;;;;;;;;9.19;76.65918;101804.5;;;;-68
2023/04/29 03:45:32;;;;;;;;;;;;;;;9.18;77.03125;101809.9;;;;-70
2023/04/29 03:50:32;;;;;;;;;;;;;;;9.17;76.70996;101820;;;;-69
2023/04/29 03:53:00;;;;;;;15.9;7.2;;;;;;;;;;;;;-68
2023/04/29 03:55:32;;;;;;;;;;;;;;;9.16;76.79688;101823.6;;;;-68
2023/04/29 04:00:33;;;;;;;;;;;;;;;9.16;76.99512;101823.5;;;;-68
2023/04/29 04:05:33;;;;;;;;;;;;;;;9.13;76.94629;101827;;;;-68
2023/04/29 04:10:32;;;;;;;;;;;;;;;9.13;76.94629;101832.5;;;;-70
2023/04/29 04:15:32;;;;;;;;;;;;;;;9.11;76.82031;101840.1;;;;-70
2023/04/29 04:20:32;;;;;;;;;;;;;;;9.1;76.93945;101846.2;;;;-70
2023/04/29 04:22:59;;;;;;;14.9;7.1;;;;;;;;;;;;;-70
2023/04/29 04:25:35;;;;;;;;;;;;;;;9.08;77.10352;101848.5;;;;-69
2023/04/29 04:30:32;;;;;;;;;;;;;;;9.07;77.02344;101853;;;;-69
2023/04/29 04:35:32;;;;;;;;;;;;;;;9.06;77.0332;101855.5;;;;-69
2023/04/29 04:40:32;;;;;;;;;;;;;;;9.05;77.05273;101866.1;;;;-69
2023/04/29 04:45:32;;;;;;;;;;;;;;;9.05;76.9873;101871.5;;;;-69
2023/04/29 04:50:32;;;;;;;;;;;;;;;9.03;77.41406;101878.9;;;;-68
2023/04/29 04:53:01;;;;;;;14.8;7;;;;;;;;;;;;;-68
2023/04/29 04:55:34;;;;;;;;;;;;;;;9.02;77.84277;101885.7;;;;-69
2023/04/29 05:00:32;;;;;;;;;;;;;;;8.98;77.1748;101896.1;;;;-69
2023/04/29 05:05:36;;;;;;;;;;;;;;;8.91;77.26074;101899.8;;;;-69
2023/04/29 05:10:32;;;;;;;;;;;;;;;8.85;77.66895;101909.7;;;;-71
2023/04/29 05:15:32;;;;;;;;;;;;;;;8.81;77.69531;101912.8;;;;-67
2023/04/29 05:20:34;;;;;;;;;;;;;;;8.78;77.44824;101918.9;;;;-68
2023/04/29 05:23:04;;;;;;;14.7;6.8;;;;;;;;;;;;;-71
2023/04/29 05:25:32;;;;;;;;;;;;;;;8.77;77.30078;101922.6;;;;-68
2023/04/29 05:30:32;;;;;;;;;;;;;;;8.75;77.20996;101927.4;;;;-69
2023/04/29 05:35:32;;;;;;;;;;;;;;;8.75;77.38574;101932.8;;;;-69
2023/04/29 05:40:33;;;;;;;;;;;;;;;8.83;77.31445;101934.6;;;;-67
2023/04/29 05:45:35;;;;;;;;;;;;;;;9.15;77.53418;101930.3;;;;-70
2023/04/29 05:50:33;;;;;;;;;;;;;;;9.54;76.49805;101937;;;;-69
2023/04/29 05:53:04;;;;;;;14.9;6.5;;;;;;;;;;;;;-68
2023/04/29 05:55:32;;;;;;;;;;;;;;;10;75.06348;101940.8;;;;-68
2023/04/29 06:00:32;;;;;;;;;;;;;;;10.39;74.05762;101948;;;;-69
2023/04/29 06:05:32;;;;;;;;;;;;;;;10.8;73.19531;101960.6;;;;-69
2023/04/29 06:10:32;;;;;;;;;;;;;;;11.2;72.28418;101968.5;;;;-68
2023/04/29 06:15:32;;;;;;;;;;;;;;;11.51;71.91211;101968.6;;;;-69
2023/04/29 06:20:32;;;;;;;;;;;;;;;11.94;71.46094;101973.3;;;;-69
2023/04/29 06:23:05;;;;;;;13.3;6.3;;;;;;;;;;;;;-68
2023/04/29 06:25:32;;;;;;;;;;;;;;;12.18;70.96484;101978.7;;;;-70
2023/04/29 06:30:35;;;;;;;;;;;;;;;12.52;70.2959;101985.6;;;;-69
2023/04/29 06:35:32;;;;;;;;;;;;;;;12.65;69.71387;101993.7;;;;-69
2023/04/29 06:40:33;;;;;;;;;;;;;;;13.01;70.11621;101997;;;;-71
2023/04/29 06:45:32;;;;;;;;;;;;;;;13.33;69.0166;102005.3;;;;-69
2023/04/29 06:50:33;;;;;;;;;;;;;;;13.62;68.92871;102012.3;;;;-68
2023/04/29 06:53:06;;;;;;;14;6.6;;;;;;;;;;;;;-68
2023/04/29 06:55:32;;;;;;;;;;;;;;;13.91;68.49316;102011.2;;;;-69
2023/04/29 07:00:33;;;;;;;;;;;;;;;14.06;68.08008;102019.2;;;;-69
2023/04/29 07:05:32;;;;;;;;;;;;;;;14.32;67.37988;102026.4;;;;-68
2023/04/29 07:10:36;;;;;;;;;;;;;;;14.62;66.5293;102029.3;;;;-69
2023/04/29 07:15:32;;;;;;;;;;;;;;;14.86;66.71191;102038.1;;;;-70
2023/04/29 07:20:32;;;;;;;;;;;;;;;15.22;65.72168;102042.6;;;;-70
2023/04/29 07:23:09;;;;;;;11.3;5.8;;;;;;;;;;;;;-70
2023/04/29 07:25:33;;;;;;;;;;;;;;;15.38;65.07129;102046.5;;;;-68
2023/04/29 07:30:34;;;;;;;;;;;;;;;15.67;64.65234;102057.7;;;;-70
2023/04/29 07:35:32;;;;;;;;;;;;;;;15.86;64.16211;102063.5;;;;-69
2023/04/29 07:40:33;;;;;;;;;;;;;;;16.16;63.18066;102073;;;;-69
2023/04/29 07:45:32;;;;;;;;;;;;;;;16.35;63.15234;102068.6;;;;-69
2023/04/29 07:50:32;;;;;;;;;;;;;;;16.52;62.70313;102068.6;;;;-69
2023/04/29 07:53:11;;;;;;;10.2;5.1;;;;;;;;;;;;;-70
2023/04/29 07:55:32;;;;;;;;;;;;;;;16.66;62.18066;102072.4;;;;-67
2023/04/29 08:00:32;;;;;;;;;;;;;;;17.02;62.10645;102078.1;;;;-69
2023/04/29 08:05:32;;;;;;;;;;;;;;;17.33;61.23633;102084.7;;;;-74
2023/04/29 08:10:32;;;;;;;;;;;;;;;17.57;60.98633;102088.5;;;;-68
2023/04/29 08:15:32;;;;;;;;;;;;;;;17.82;60.60156;102091.2;;;;-70
2023/04/29 08:20:34;;;;;;;;;;;;;;;18.05;59.99902;102098.9;;;;-69
2023/04/29 08:23:14;;;;;;;8.2;4.6;;;;;;;;;;;;;-69
2023/04/29 08:25:32;;;;;;;;;;;;;;;18.3;60.18164;102097.4;;;;-68
2023/04/29 08:30:34;;;;;;;;;;;;;;;18.65;60.1377;102112;;;;-68
2023/04/29 08:35:32;;;;;;;;;;;;;;;18.55;59.65723;102109.8;;;;-70
2023/04/29 08:40:32;;;;;;;;;;;;;;;18.37;59.57813;102115.9;;;;-70
2023/04/29 08:45:32;;;;;;;;;;;;;;;18.13;60.13477;102117.4;;;;-69
2023/04/29 08:50:38;;;;;;;;;;;;;;;18.08;60.6709;102131.4;;;;-69
2023/04/29 08:53:18;;;;;;;9.5;5;;;;;;;;;;;;;-69
2023/04/29 08:55:35;;;;;;;;;;;;;;;18.46;59.75977;102127.4;;;;-69
2023/04/29 09:00:33;;;;;;;;;;;;;;;18.92;59.56055;102134.2;;;;-68
2023/04/29 09:05:32;;;;;;;;;;;;;;;19.47;58.86035;102139;;;;-69
2023/04/29 09:10:32;;;;;;;;;;;;;;;19.96;58.03809;102140.4;;;;-68
2023/04/29 09:15:32;;;;;;;;;;;;;;;20.17;57.09863;102149.5;;;;-71
2023/04/29 09:20:38;;;;;;;;;;;;;;;19.96;56.6377;102150.1;;;;-68
2023/04/29 09:23:20;;;;;;;11.1;4.5;;;;;;;;;;;;;-69
2023/04/29 09:25:32;;;;;;;;;;;;;;;19.86;57.11523;102142.2;;;;-69
2023/04/29 09:30:32;;;;;;;;;;;;;;;19.9;56.72266;102146.3;;;;-69
2023/04/29 09:35:32;;;;;;;;;;;;;;;20.08;56.99609;102142.8;;;;-68
2023/04/29 09:40:35;;;;;;;;;;;;;;;20.49;56.71875;102147;;;;-68
2023/04/29 09:45:41;;;;;;;;;;;;;;;20.87;55.93359;102148.8;;;;-69
2023/04/29 09:50:32;;;;;;;;;;;;;;;21.2;55.20898;102151.6;;;;-69
2023/04/29 09:53:31;;;;;;;6.5;3.9;;;;;;;;;;;;;-68
2023/04/29 09:55:33;;;;;;;;;;;;;;;21.51;54.59668;102162.6;;;;-68
2023/04/29 10:00:34;;;;;;;;;;;;;;;21.72;53.80957;102162;;;;-69
2023/04/29 10:05:33;;;;;;;;;;;;;;;21.91;53.83398;102154.6;;;;-69
2023/04/29 10:10:33;;;;;;;;;;;;;;;22.17;53.22168;102162.9;;;;-70
2023/04/29 10:15:39;;;;;;;;;;;;;;;22.5;52.60742;102162.2;;;;-68
2023/04/29 10:20:35;;;;;;;;;;;;;;;22.72;53.02441;102159.6;;;;-71
2023/04/29 10:23:31;;;;;;;7.6;3.6;;;;;;;;;;;;;-72
2023/04/29 10:25:32;;;;;;;;;;;;;;;22.95;52.38477;102156.5;;;;-70
2023/04/29 10:30:32;;;;;;;;;;;;;;;23.14;52.27051;102156.9;;;;-72
2023/04/29 10:35:33;;;;;;;;;;;;;;;23.26;51.37695;102151.4;;;;-71
2023/04/29 10:40:39;;;;;;;;;;;;;;;23.47;50.56152;102151.3;;;;-70
2023/04/29 10:45:35;;;;;;;;;;;;;;;23.52;51.34961;102148.1;;;;-72
2023/04/29 10:50:37;;;;;;;;;;;;;;;23.41;51.87695;102149.1;;;;-71
2023/04/29 10:53:30;;;;;;;5.8;3;;;;;;;;;;;;;-71
2023/04/29 10:55:32;;;;;;;;;;;;;;;23.59;52.75879;102157.7;;;;-70
2023/04/29 11:00:36;;;;;;;;;;;;;;;23.69;53.08105;102160;;;;-69
2023/04/29 11:05:37;;;;;;;;;;;;;;;23.72;51.83105;102161;;;;-71
2023/04/29 11:10:43;;;;;;;;;;;;;;;23.59;53.54004;102158.1;;;;-68
2023/04/29 11:15:34;;;;;;;;;;;;;;;23.83;54.37402;102156.2;;;;-71
2023/04/29 11:20:32;;;;;;;;;;;;;;;24.04;54.87109;102164.2;;;;-71
2023/04/29 11:23:46;;;;;;;4.8;3;;;;;;;;;;;;;-72
2023/04/29 11:25:32;;;;;;;;;;;;;;;24.43;52.7207;102159.9;;;;-71
2023/04/29 11:30:32;;;;;;;;;;;;;;;24.59;53.0957;102158.3;;;;-71
2023/04/29 11:35:32;;;;;;;;;;;;;;;24.71;52.95996;102162.1;;;;-71
2023/04/29 11:40:32;;;;;;;;;;;;;;;24.74;54.72461;102169.1;;;;-71
2023/04/29 11:45:32;;;;;;;;;;;;;;;25.07;52.74902;102178;;;;-72
2023/04/29 11:50:32;;;;;;;;;;;;;;;25.2;53.2373;102185.2;;;;-72
2023/04/29 11:53:39;;;;;;;6;2.7;;;;;;;;;;;;;-73
2023/04/29 11:55:33;;;;;;;;;;;;;;;25.33;50.61035;102186.7;;;;-72
2023/04/29 12:00:33;;;;;;;;;;;;;;;25.44;52.05273;102189.8;;;;-73
2023/04/29 12:05:32;;;;;;;;;;;;;;;25.59;53.24902;102186.6;;;;-73
2023/04/29 12:10:33;;;;;;;;;;;;;;;25.75;54.22559;102186.4;;;;-73
2023/04/29 12:15:32;;;;;;;;;;;;;;;25.73;53.49512;102186;;;;-71
2023/04/29 12:20:32;;;;;;;;;;;;;;;25.83;54.53418;102190.4;;;;-72
2023/04/29 12:23:44;;;;;;;4.7;2.3;;;;;;;;;;;;;-73
2023/04/29 12:25:32;;;;;;;;;;;;;;;25.93;54.48926;102182.8;;;;-72
2023/04/29 12:30:32;;;;;;;;;;;;;;;25.95;54.08691;102193.7;;;;-72
2023/04/29 12:35:32;;;;;;;;;;;;;;;25.9;53.79297;102191.3;;;;-72
2023/04/29 12:40:33;;;;;;;;;;;;;;;26.07;54.64355;102187.3;;;;-72
2023/04/29 12:45:36;;;;;;;;;;;;;;;26.15;52.48242;102193.4;;;;-70
2023/04/29 12:50:39;;;;;;;;;;;;;;;26.08;55.24707;102200;;;;-68
2023/04/29 12:53:48;;;;;;;3.7;2;;;;;;;;;;;;;-67
2023/04/29 12:55:34;;;;;;;;;;;;;;;26.11;54.11719;102201;;;;-69
2023/04/29 13:00:36;;;;;;;;;;;;;;;25.92;55.14648;102196.6;;;;-67
2023/04/29 13:05:32;;;;;;;;;;;;;;;26.06;52.92188;102198.8;;;;-67
2023/04/29 13:10:32;;;;;;;;;;;;;;;26.03;54.0166;102203.6;;;;-67
2023/04/29 13:15:32;;;;;;;;;;;;;;;26.01;53.44727;102206.8;;;;-68
2023/04/29 13:20:32;;;;;;;;;;;;;;;25.92;54.49902;102211.1;;;;-67
2023/04/29 13:23:52;;;;;;;4.4;1.8;;;;;;;;;;;;;-68
2023/04/29 13:25:32;;;;;;;;;;;;;;;26.09;53.35352;102217;;;;-68
2023/04/29 13:30:33;;;;;;;;;;;;;;;26.07;53.60449;102215.4;;;;-68
2023/04/29 13:35:34;;;;;;;;;;;;;;;25.99;54.17188;102209.9;;;;-68
2023/04/29 13:40:31;;;;;;;;;;;;;;;26.12;52.12012;102214.7;;;;-69
2023/04/29 13:45:33;;;;;;;;;;;;;;;26.21;54.5332;102206.2;;;;-68
2023/04/29 13:50:32;;;;;;;;;;;;;;;26.3;51.28516;102209.8;;;;-66
2023/04/29 13:53:59;;;;;;;4.6;1.5;;;;;;;;;;;;;-68
2023/04/29 13:55:33;;;;;;;;;;;;;;;26.29;52.89063;102219.1;;;;-67
2023/04/29 14:00:32;;;;;;;;;;;;;;;26.23;52.9082;102218.9;;;;-71
2023/04/29 14:05:32;;;;;;;;;;;;;;;26.36;50.70117;102222.5;;;;-68
2023/04/29 14:10:35;;;;;;;;;;;;;;;26.29;52.47559;102235.3;;;;-67
2023/04/29 14:15:32;;;;;;;;;;;;;;;26.2;51.35449;102232.8;;;;-68
2023/04/29 14:20:35;;;;;;;;;;;;;;;26.3;51.2041;102233.4;;;;-69
2023/04/29 14:24:05;;;;;;;3.7;1.6;;;;;;;;;;;;;-67
2023/04/29 14:25:31;;;;;;;;;;;;;;;26.38;50.73926;102244.5;;;;-68
2023/04/29 14:30:34;;;;;;;;;;;;;;;26.23;51.13867;102241.7;;;;-67
2023/04/29 14:35:31;;;;;;;;;;;;;;;26.22;51.24219;102243.4;;;;-68
2023/04/29 14:40:32;;;;;;;;;;;;;;;26.33;50.10938;102249.4;;;;-67
2023/04/29 14:45:31;;;;;;;;;;;;;;;26.29;50.42773;102252.3;;;;-67
2023/04/29 14:50:31;;;;;;;;;;;;;;;26.24;48.6875;102250.7;;;;-67
2023/04/29 14:54:10;;;;;;;4.4;1.4;;;;;;;;;;;;;-66
2023/04/29 14:55:34;;;;;;;;;;;;;;;26.04;50.74805;102249.5;;;;-68
2023/04/29 15:00:34;;;;;;;;;;;;;;;26;49.67871;102241.9;;;;-67
2023/04/29 15:05:32;;;;;;;;;;;;;;;26;49.07715;102247.9;;;;-65
2023/04/29 15:10:32;;;;;;;;;;;;;;;25.8;51.26367;102248.5;;;;-67
2023/04/29 15:15:32;;;;;;;;;;;;;;;25.72;48.7002;102253.9;;;;-65
2023/04/29 15:20:32;;;;;;;;;;;;;;;25.7;49.70313;102264.6;;;;-68
2023/04/29 15:24:11;;;;;;;2.3;1.2;;;;;;;;;;;;;-69
2023/04/29 15:25:33;;;;;;;;;;;;;;;25.43;45.78027;102261;;;;-67
2023/04/29 15:30:32;;;;;;;;;;;;;;;25.27;47.91211;102263.3;;;;-67
2023/04/29 15:35:32;;;;;;;;;;;;;;;25.15;48.59277;102264.5;;;;-68
2023/04/29 15:40:32;;;;;;;;;;;;;;;24.83;47.68066;102264.4;;;;-68
2023/04/29 15:45:32;;;;;;;;;;;;;;;24.67;49.51953;102271.2;;;;-68
2023/04/29 15:50:32;;;;;;;;;;;;;;;24.54;49.02246;102273.9;;;;-67
2023/04/29 15:54:16;;;;;;;4.2;1.6;;;;;;;;;;;;;-69
2023/04/29 15:55:33;;;;;;;;;;;;;;;24.31;48.99805;102280.7;;;;-68
2023/04/29 16:00:37;;;;;;;;;;;;;;;24.23;49.97852;102282.9;;;;-67
2023/04/29 16:05:35;;;;;;;;;;;;;;;24.08;49.47949;102284.8;;;;-67
2023/04/29 16:10:31;;;;;;;;;;;;;;;23.93;50.08301;102291.6;;;;-66
2023/04/29 16:15:32;;;;;;;;;;;;;;;23.77;50.49219;102296.2;;;;-68
2023/04/29 16:20:32;;;;;;;;;;;;;;;23.59;50.31055;102297.5;;;;-67
2023/04/29 16:24:20;;;;;;;4.6;1.9;;;;;;;;;;;;;-68
2023/04/29 16:25:32;;;;;;;;;;;;;;;23.4;51.09375;102300.5;;;;-68
2023/04/29 16:30:32;;;;;;;;;;;;;;;23.2;51.55273;102310.4;;;;-68
2023/04/29 16:35:34;;;;;;;;;;;;;;;23.06;51.2959;102315.9;;;;-69
2023/04/29 16:40:32;;;;;;;;;;;;;;;22.81;50.2002;102315.4;;;;-72
2023/04/29 16:45:32;;;;;;;;;;;;;;;22.62;51.83105;102322.1;;;;-73
2023/04/29 16:50:40;;;;;;;;;;;;;;;22.37;51.0332;102316.6;;;;-73
2023/04/29 16:54:25;;;;;;;4.1;1.9;;;;;;;;;;;;;-73
2023/04/29 16:55:32;;;;;;;;;;;;;;;22.13;51.04102;102318.7;;;;-71
2023/04/29 17:05:42;;;;;;;;;;;;;;;21.62;50.95996;102323.1;;;;-73
2023/04/29 17:10:37;;;;;;;;;;;;;;;21.31;51.62207;102319.7;;;;-72
2023/04/29 17:15:34;;;;;;;;;;;;;;;21;51.75684;102316.7;;;;-74
2023/04/29 17:20:32;;;;;;;;;;;;;;;20.79;52.43066;102322.7;;;;-73
2023/04/29 17:24:32;;;;;;;4.4;2;;;;;;;;;;;;;-74
2023/04/29 17:25:38;;;;;;;;;;;;;;;20.56;52.2207;102330.3;;;;-73
2023/04/29 17:30:37;;;;;;;;;;;;;;;20.3;51.66504;102326.3;;;;-73
2023/04/29 17:35:46;;;;;;;;;;;;;;;20.01;51.98535;102325.2;;;;-74
2023/04/29 17:40:32;;;;;;;;;;;;;;;19.78;52.66406;102318.2;;;;-73
2023/04/29 17:45:31;;;;;;;;;;;;;;;19.53;53.25;102318.7;;;;-74
2023/04/29 17:50:34;;;;;;;;;;;;;;;19.26;52.91016;102323.2;;;;-74
2023/04/29 17:54:34;;;;;;;4.8;2.1;;;;;;;;;;;;;-75
2023/04/29 17:55:43;;;;;;;;;;;;;;;19.05;53.4541;102324.4;;;;-74
2023/04/29 18:00:46;;;;;;;;;;;;;;;18.75;53.37305;102327.1;;;;-75
2023/04/29 18:05:32;;;;;;;;;;;;;;;18.53;53.74316;102334;;;;-74
2023/04/29 18:10:36;;;;;;;;;;;;;;;18.28;54.24707;102340.4;;;;-73
2023/04/29 18:15:35;;;;;;;;;;;;;;;18.01;54.71289;102343.8;;;;-74
2023/04/29 18:20:32;;;;;;;;;;;;;;;17.7;54.83301;102345.7;;;;-73
2023/04/29 18:24:35;;;;;;;5.2;2.5;;;;;;;;;;;;;-74
2023/04/29 18:25:38;;;;;;;;;;;;;;;17.41;54.51367;102346.8;;;;-74
2023/04/29 18:30:32;;;;;;;;;;;;;;;17.18;55.40234;102351.1;;;;-74
2023/04/29 18:35:32;;;;;;;;;;;;;;;16.92;55.52832;102353.3;;;;-76
2023/04/29 18:40:35;;;;;;;;;;;;;;;16.65;55.7998;102358.8;;;;-75
2023/04/29 18:45:34;;;;;;;;;;;;;;;16.43;55.61426;102358.9;;;;-74
2023/04/29 18:50:33;;;;;;;;;;;;;;;16.21;56.25293;102365.3;;;;-73
2023/04/29 18:54:39;;;;;;;6;2.9;;;;;;;;;;;;;-74
2023/04/29 18:55:32;;;;;;;;;;;;;;;15.99;55.88574;102368.1;;;;-73
2023/04/29 19:00:32;;;;;;;;;;;;;;;15.75;55.95703;102372.3;;;;-74
2023/04/29 19:05:32;;;;;;;;;;;;;;;15.5;56.10645;102377;;;;-74
2023/04/29 19:10:34;;;;;;;;;;;;;;;15.24;56.17383;102379.2;;;;-72
2023/04/29 19:15:32;;;;;;;;;;;;;;;15.01;56.39258;102380.3;;;;-70
2023/04/29 19:20:33;;;;;;;;;;;;;;;14.79;56.74609;102385;;;;-70
2023/04/29 19:24:45;;;;;;;5.1;3;;;;;;;;;;;;;-71
2023/04/29 19:25:31;;;;;;;;;;;;;;;14.57;56.49316;102388.3;;;;-70
2023/04/29 19:30:33;;;;;;;;;;;;;;;14.31;56.16797;102398.3;;;;-69
2023/04/29 19:35:32;;;;;;;;;;;;;;;14.11;56.7832;102403.2;;;;-69
2023/04/29 19:40:32;;;;;;;;;;;;;;;13.91;56.83594;102408.9;;;;-70
2023/04/29 19:45:32;;;;;;;;;;;;;;;13.73;56.77832;102415.1;;;;-69
2023/04/29 19:50:32;;;;;;;;;;;;;;;13.51;57.05273;102422.6;;;;-70
2023/04/29 19:54:43;;;;;;;8;3.5;;;;;;;;;;;;;-72
2023/04/29 19:55:34;;;;;;;;;;;;;;;13.32;57.33105;102422.3;;;;-69
2023/04/29 20:00:32;;;;;;;;;;;;;;;13.13;57.91113;102429;;;;-70
2023/04/29 20:05:32;;;;;;;;;;;;;;;12.98;58.24902;102428.3;;;;-70
2023/04/29 20:10:32;;;;;;;;;;;;;;;12.8;58.28223;102432.8;;;;-69
2023/04/29 20:15:33;;;;;;;;;;;;;;;12.62;58.47168;102434;;;;-70
2023/04/29 20:20:32;;;;;;;;;;;;;;;12.49;58.55371;102437.5;;;;-69
2023/04/29 20:24:47;;;;;;;8.8;3.4;;;;;;;;;;;;;-70
2023/04/29 20:25:31;;;;;;;;;;;;;;;12.36;58.66992;102445.8;;;;-71
2023/04/29 20:30:32;;;;;;;;;;;;;;;12.18;59.24902;102441.9;;;;-70
2023/04/29 20:35:32;;;;;;;;;;;;;;;12.05;59.35449;102444.3;;;;-70
2023/04/29 20:40:33;;;;;;;;;;;;;;;11.95;59.15137;102452.3;;;;-70
2023/04/29 20:45:31;;;;;;;;;;;;;;;11.81;59.71191;102453.4;;;;-69
2023/04/29 20:50:34;;;;;;;;;;;;;;;11.68;59.65137;102455.3;;;;-70
2023/04/29 20:54:47;;;;;;;10.3;3.4;;;;;;;;;;;;;-73
2023/04/29 20:55:32;;;;;;;;;;;;;;;11.58;59.64844;102454.5;;;;-71
2023/04/29 21:00:39;;;;;;;;;;;;;;;11.42;59.66016;102460.7;;;;-71
2023/04/29 21:05:32;;;;;;;;;;;;;;;11.27;60.19629;102466.2;;;;-69
2023/04/29 21:10:32;;;;;;;;;;;;;;;11.16;60.63867;102468;;;;-69
2023/04/29 21:15:32;;;;;;;;;;;;;;;11.05;60.71191;102457;;;;-70
2023/04/29 21:20:32;;;;;;;;;;;;;;;10.95;60.83301;102458.3;;;;-69
2023/04/29 21:24:49;;;;;;;6.7;3.4;;;;;;;;;;;;;-70
2023/04/29 21:25:32;;;;;;;;;;;;;;;10.84;61.14063;102464.8;;;;-69
2023/04/29 21:30:32;;;;;;;;;;;;;;;10.74;61.24805;102473.2;;;;-70
2023/04/29 21:35:35;;;;;;;;;;;;;;;10.65;60.9248;102476.5;;;;-69
2023/04/29 21:40:33;;;;;;;;;;;;;;;10.58;61.04883;102467.5;;;;-72
2023/04/29 21:45:32;;;;;;;;;;;;;;;10.47;61.27832;102458.5;;;;-71
2023/04/29 21:50:34;;;;;;;;;;;;;;;10.36;61.46289;102470.1;;;;-69
2023/04/29 21:54:51;;;;;;;7.1;3.8;;;;;;;;;;;;;-69
2023/04/29 21:55:32;;;;;;;;;;;;;;;10.27;60.99316;102473.9;;;;-70
2023/04/29 22:00:35;;;;;;;;;;;;;;;10.18;61.55957;102470.9;;;;-69
2023/04/29 22:05:31;;;;;;;;;;;;;;;10.08;61.50098;102476.5;;;;-69
2023/04/29 22:10:33;;;;;;;;;;;;;;;9.97;61.64063;102480;;;;-71
2023/04/29 22:15:31;;;;;;;;;;;;;;;9.89;61.60742;102473.6;;;;-69
2023/04/29 22:20:33;;;;;;;;;;;;;;;9.78;61.80371;102471.6;;;;-72
2023/04/29 22:24:52;;;;;;;7.9;3.6;;;;;;;;;;;;;-69
2023/04/29 22:25:32;;;;;;;;;;;;;;;9.69;62.00098;102468.7;;;;-72
2023/04/29 22:30:34;;;;;;;;;;;;;;;9.6;62.18848;102472.4;;;;-69
2023/04/29 22:35:32;;;;;;;;;;;;;;;9.54;62.28906;102473.8;;;;-70
2023/04/29 22:40:32;;;;;;;;;;;;;;;9.47;62.06934;102464.5;;;;-71
2023/04/29 22:45:36;;;;;;;;;;;;;;;9.36;62.33105;102471;;;;-69
2023/04/29 22:50:31;;;;;;;;;;;;;;;9.29;62.59863;102470.2;;;;-70
2023/04/29 22:54:54;;;;;;;7;3.6;;;;;;;;;;;;;-69
2023/04/29 22:55:31;;;;;;;;;;;;;;;9.21;62.41016;102469.7;;;;-69
2023/04/29 23:00:33;;;;;;;;;;;;;;;9.14;62.4873;102471.7;;;;-69
2023/04/29 23:05:32;;;;;;;;;;;;;;;9.1;62.29395;102472.9;;;;-70
2023/04/29 23:10:31;;;;;;;;;;;;;;;9.01;62.70117;102479.6;;;;-71
2023/04/29 23:15:32;;;;;;;;;;;;;;;8.98;62.65332;102480.6;;;;-69
2023/04/29 23:20:32;;;;;;;;;;;;;;;8.97;62.55078;102487.4;;;;-71
2023/04/29 23:24:55;;;;;;;6.9;3.6;;;;;;;;;;;;;-70
2023/04/29 23:25:41;;;;;;;;;;;;;;;8.88;62.36328;102491.6;;;;-69
2023/04/29 23:30:34;;;;;;;;;;;;;;;8.8;62.67285;102498;;;;-70
2023/04/29 23:35:31;;;;;;;;;;;;;;;8.71;62.92578;102504.1;;;;-70
2023/04/29 23:40:32;;;;;;;;;;;;;;;8.71;62.92578;102507.2;;;;-69
2023/04/29 23:45:34;;;;;;;;;;;;;;;8.62;63.08984;102512;;;;-72
2023/04/29 23:50:32;;;;;;;;;;;;;;;8.52;63.12988;102516.4;;;;-68
2023/04/29 23:54:56;;;;;;;7.8;3.6;;;;;;;;;;;;;-70
2023/04/29 23:55:32;;;;;;;;;;;;;;;8.49;63.33496;102518.4;;;;-69
